Latest Weather Observations for Gooseberry Hill

IDW60801

Issued at 9:23 pm WST Monday 19 November 2018 (issued every 10 minutes, with the page automatically refreshed every 10 minutes)

About weather observations | Map of weather stations | Latest weather observations for WA | Other Formats
Station Details ID: 009204 Name: GOOSEBERRY HILL Lat: -31.94 Lon: 116.05 Height: 220.0 m
Data from the previous 72 hours. | See also: Recent months at Gooseberry Hill
Date/Time
WST
Temp
°C
App
Temp
°C
Dew
Point
°C
Rel
Hum
%
Delta-T
°C
Wind Press
QNH
hPa
Press
MSL
hPa
Rain since
9am
mm
Dir  Spd
km/h
Gust
km/h
Spd
kts
Gust
kts
19/09:00pm 13.6 6.8 5.3 57 3.9 SSW 30 46 16 25 - - -
19/08:55pm 13.7 7.4 5.8 59 3.8 SSW 28 46 15 25 - - -
19/08:30pm 14.0 8.3 6.6 61 3.6 SSW 26 39 14 21 - - -
19/08:00pm 14.5 8.8 6.8 60 3.8 SSW 26 37 14 20 - - -
19/07:30pm 14.7 10.2 7.0 60 3.8 SW 20 32 11 17 - - -
19/07:00pm 15.2 11.5 8.0 62 3.6 SW 17 26 9 14 - - -
19/06:30pm 15.9 11.9 8.2 60 3.9 SW 19 33 10 18 - - -
19/06:00pm 16.6 12.4 8.3 58 4.3 SW 20 35 11 19 - - -
19/05:30pm 16.4 11.9 8.4 59 4.1 SW 22 37 12 20 - - -
19/05:00pm 17.0 12.6 7.6 54 4.8 SW 20 33 11 18 - - -
19/04:30pm 17.2 12.9 7.8 54 4.8 SW 20 43 11 23 - - -
19/04:00pm 17.6 13.1 6.8 49 5.4 SW 20 30 11 16 - - -
19/03:30pm 17.2 12.8 7.3 52 5.0 SW 20 32 11 17 - - -
19/03:00pm 17.1 12.5 8.0 55 4.7 SSW 22 39 12 21 - - -
19/02:30pm 17.1 12.7 7.2 52 5.0 SSW 20 33 11 18 - - -
19/02:00pm 17.8 14.0 6.0 46 5.8 SSW 15 28 8 15 - - -
19/01:30pm 18.6 13.9 5.1 41 6.6 SW 19 30 10 16 - - -
19/01:00pm 18.6 13.3 5.1 41 6.6 SSW 22 37 12 20 - - -
19/12:30pm 18.0 12.9 3.9 39 6.7 SSW 20 32 11 17 - - -
19/12:00pm 18.6 13.8 4.8 40 6.7 SW 19 28 10 15 - - -
19/11:30am 17.2 13.1 4.5 43 6.1 SW 15 28 8 15 - - -
19/11:00am 15.8 10.5 4.8 48 5.2 SW 22 33 12 18 - - -
19/10:30am 16.8 13.4 5.7 48 5.4 SW 13 20 7 11 - - -
19/10:00am 16.2 13.7 4.9 47 5.4 SSW 7 19 4 10 - - -
19/09:30am 15.4 12.5 4.8 49 5.0 SSW 9 19 5 10 - - -
19/09:00am 14.7 11.5 5.0 52 4.6 S 11 22 6 12 - - -
19/08:30am 14.2 11.2 3.9 50 4.8 SSW 9 17 5 9 - - -
19/08:00am 14.0 11.8 5.1 55 4.2 SSE 6 13 3 7 - - -
19/07:30am 12.9 9.5 3.8 54 4.1 SE 11 19 6 10 - - -
19/07:00am 13.0 10.1 4.7 57 3.9 ESE 9 24 5 13 - - -
19/06:30am 12.2 8.9 4.4 59 3.6 ESE 11 20 6 11 - - -
19/06:00am 11.6 8.2 3.9 59 3.5 SE 11 17 6 9 - - -
19/05:30am 11.6 7.7 3.4 57 3.7 SE 13 24 7 13 - - -
19/05:00am 11.7 7.1 3.5 57 3.7 SSE 17 28 9 15 - - -
19/04:30am 12.1 7.6 4.1 58 3.6 SSE 17 35 9 19 - - -
19/04:00am 12.4 8.8 4.9 60 3.5 SSE 13 26 7 14 - - -
19/03:30am 12.6 9.3 4.8 59 3.6 SSE 11 22 6 12 - - -
19/03:00am 12.9 9.3 4.8 58 3.8 SSE 13 22 7 12 - - -
19/02:30am 13.1 9.8 4.8 57 3.9 SSE 11 17 6 9 - - -
19/02:00am 13.4 10.2 5.3 58 3.8 S 11 22 6 12 - - -
19/01:30am 13.5 9.4 6.4 62 3.4 SSW 17 30 9 16 - - -
19/01:00am 13.6 9.2 7.6 67 3.0 SSW 20 37 11 20 - - -
19/12:30am 13.9 10.3 8.5 70 2.7 SSW 17 32 9 17 - - -
19/12:00am 14.1 11.1 9.3 73 2.5 SSW 15 22 8 12 - - -
 
Date/Time
WST
Temp
°C
App
Temp
°C
Dew
Point
°C
Rel
Hum
%
Delta-T
°C
Wind Press
QNH
hPa
Press
MSL
hPa
Rain since
9am
mm
Dir  Spd
km/h
Gust
km/h
Spd
kts
Gust
kts
18/11:30pm 14.4 12.3 9.6 73 2.5 SSW 11 17 6 9 - - -
18/11:00pm 14.5 11.2 9.7 73 2.5 SSW 17 30 9 16 - - -
18/10:30pm 14.8 11.8 10.6 76 2.2 SSW 17 24 9 13 - - -
18/10:00pm 15.0 11.8 11.2 78 2.0 SW 19 32 10 17 - - -
18/09:30pm 15.7 12.8 12.3 80 1.9 SW 19 33 10 18 - - -
18/09:00pm 16.1 15.0 13.2 83 1.6 SW 11 17 6 9 - - -
18/08:30pm 16.0 14.5 13.1 83 1.6 SW 13 20 7 11 - - -
18/08:00pm 16.1 14.1 12.8 81 1.8 SW 15 26 8 14 - - -
18/07:30pm 16.4 14.5 12.9 80 2.0 SW 15 26 8 14 - - -
18/07:00pm 16.5 13.6 13.0 80 2.0 SW 20 32 11 17 - - -
18/06:30pm 17.1 12.7 11.8 71 2.9 SW 26 39 14 21 - - -
18/06:00pm 17.9 13.1 13.0 73 2.8 WSW 30 44 16 24 - - -
18/05:30pm 18.2 13.9 12.2 68 3.4 WSW 26 41 14 22 - - -
18/05:00pm 18.7 13.6 12.0 65 3.7 SW 30 44 16 24 - - -
18/04:30pm 20.4 16.4 13.1 63 4.2 WSW 26 44 14 24 - - -
18/04:00pm 20.6 16.2 12.8 61 4.5 WSW 28 46 15 25 - - -
18/03:39pm 19.2 14.9 13.2 68 3.4 WSW 28 46 15 25 - - -
18/03:30pm 19.1 15.4 12.8 67 3.6 WSW 24 37 13 20 - - -
18/03:00pm 19.1 14.1 13.5 70 3.2 WSW 32 46 17 25 - - -
18/02:40pm 20.1 15.2 12.6 62 4.3 WSW 30 48 16 26 - - -
18/02:30pm 20.1 14.6 11.8 59 4.7 SW 32 46 17 25 - - -
18/02:00pm 21.0 16.4 12.2 57 5.0 WSW 28 46 15 25 - - -
18/01:58pm 21.0 16.1 11.3 54 5.4 WSW 28 46 15 25 - - -
18/01:30pm 22.0 18.8 13.1 57 5.2 WSW 22 35 12 19 - - -
18/01:00pm 22.3 18.7 13.1 56 5.3 WSW 24 41 13 22 - - -
18/12:30pm 21.0 16.6 11.6 55 5.3 WSW 26 39 14 21 - - -
18/12:00pm 21.6 18.3 11.6 53 5.6 WSW 20 33 11 18 - - -
18/11:30am 20.7 16.4 10.8 53 5.5 SW 24 35 13 19 - - -
18/11:00am 21.3 17.9 10.5 50 6.0 WSW 19 33 10 18 - - -
18/10:30am 20.7 16.9 11.1 54 5.3 WSW 22 35 12 19 - - -
18/10:00am 19.7 16.3 11.2 58 4.7 WSW 20 37 11 20 - - -
18/09:30am 18.9 14.9 11.7 63 4.0 WSW 24 35 13 19 - - -
18/09:00am 17.9 14.9 12.6 71 3.0 SW 20 30 11 16 - - -
18/08:30am 17.6 15.2 12.5 72 2.9 WSW 17 26 9 14 - - -
18/08:00am 18.5 17.3 12.9 70 3.2 W 11 20 6 11 - - -
18/07:30am 16.6 15.2 12.2 75 2.4 WSW 11 15 6 8 - - -
18/07:00am 16.5 16.0 12.1 75 2.4 SSW 6 9 3 5 - - -
18/06:30am 16.1 15.6 11.9 76 2.3 SSW 6 7 3 4 - - -
18/06:00am 15.5 14.9 11.7 78 2.1 SSW 6 9 3 5 - - -
18/05:30am 15.3 14.6 12.1 81 1.8 SSW 7 9 4 5 - - -
18/05:00am 15.4 14.3 12.0 80 1.9 SW 9 17 5 9 - - -
18/04:30am 15.7 14.6 12.1 79 2.0 SW 9 13 5 7 - - -
18/04:00am 15.8 14.8 12.2 79 2.0 SW 9 15 5 8 - - -
18/03:30am 15.9 14.8 12.1 78 2.1 SW 9 15 5 8 - - -
18/03:00am 15.9 14.5 12.1 78 2.1 SW 11 20 6 11 - - -
18/02:30am 15.9 13.3 11.9 77 2.2 SW 17 26 9 14 - - -
18/02:00am 15.9 13.0 12.3 79 2.0 SW 19 28 10 15 - - -
18/01:30am 16.0 13.8 12.2 78 2.1 SW 15 26 8 14 - - -
18/01:00am 16.0 13.0 12.4 79 2.0 SW 20 30 11 16 - - -
18/12:30am 16.2 13.8 12.6 79 2.0 SW 17 24 9 13 - - -
18/12:00am 16.3 13.5 12.7 79 2.0 SW 19 28 10 15 - - -
 
Date/Time
WST
Temp
°C
App
Temp
°C
Dew
Point
°C
Rel
Hum
%
Delta-T
°C
Wind Press
QNH
hPa
Press
MSL
hPa
Rain since
9am
mm
Dir  Spd
km/h
Gust
km/h
Spd
kts
Gust
kts
17/11:30pm 16.2 13.5 12.9 81 1.9 SW 19 24 10 13 - - -
17/11:00pm 16.2 13.5 12.9 81 1.9 SW 19 24 10 13 - - -
17/10:30pm 16.2 14.3 12.9 81 1.9 SW 15 24 8 13 - - -
17/10:00pm 16.3 14.9 13.4 83 1.6 SW 13 24 7 13 - - -
17/09:30pm 16.4 14.3 13.5 83 1.6 SW 17 24 9 13 - - -
17/09:00pm 16.4 15.0 13.5 83 1.6 WSW 13 19 7 10 - - -
17/08:30pm 16.7 15.1 14.0 84 1.5 WSW 15 22 8 12 - - -
17/08:00pm 17.3 15.5 14.4 83 1.7 SW 17 24 9 13 - - -
17/07:30pm 17.7 15.6 14.6 82 1.8 WSW 19 28 10 15 - - -
17/07:00pm 17.9 16.4 14.2 79 2.1 WSW 15 20 8 11 - - -
17/06:30pm 18.8 18.2 14.5 76 2.5 WSW 11 17 6 9 - - -
17/06:00pm 19.2 18.6 14.5 74 2.8 WSW 11 15 6 8 - - -
17/05:30pm 19.6 17.3 14.2 71 3.2 WSW 19 28 10 15 - - -
17/05:00pm 20.4 18.1 14.7 70 3.4 WSW 20 30 11 16 - - -
17/04:30pm 21.1 19.7 15.6 71 3.3 WSW 17 28 9 15 - - -
17/04:00pm 20.8 17.8 14.9 69 3.5 WSW 24 35 13 19 - - -
17/03:30pm 21.2 19.4 16.0 72 3.2 WSW 20 28 11 15 - - -
17/03:00pm 22.2 20.8 16.5 70 3.5 W 19 26 10 14 - - -
17/02:30pm 22.4 21.1 16.7 70 3.5 WSW 19 30 10 16 - - -
17/02:00pm 23.8 23.5 17.3 67 4.1 WSW 15 24 8 13 - - -
17/01:30pm 22.8 21.9 16.8 69 3.7 W 17 26 9 14 - - -
17/01:00pm 22.7 21.4 16.9 70 3.6 WSW 19 26 10 14 - - -
17/12:30pm 23.0 21.0 16.5 67 4.0 WSW 22 35 12 19 - - -
17/12:00pm 25.4 24.3 17.3 61 5.1 W 19 30 10 16 - - -
17/11:30am 24.4 23.2 17.1 63 4.6 W 19 30 10 16 - - -
17/11:00am 24.4 24.2 17.6 66 4.3 W 15 28 8 15 - - -
17/10:30am 25.7 26.2 18.4 64 4.7 W 13 24 7 13 - - -
17/10:00am 25.1 25.7 17.8 64 4.6 WNW 11 20 6 11 - - -
17/09:30am 24.4 25.4 18.6 70 3.7 NW 11 20 6 11 - - -
17/09:00am 22.9 24.6 18.4 76 2.9 NW 7 17 4 9 - - -
17/08:30am 20.2 21.6 18.7 91 0.9 N 9 15 5 8 - - -
17/08:00am 18.7 19.7 18.7 100 0.0 N 11 17 6 9 - - -
17/07:30am 17.9 18.6 17.9 100 0.0 N 11 19 6 10 - - -
17/07:00am 17.7 17.9 17.7 100 0.0 NNE 13 20 7 11 - - -
17/06:30am 17.5 17.6 17.5 100 0.0 N 13 20 7 11 - - -
17/06:00am 17.3 17.3 17.3 100 0.0 N 13 20 7 11 - - -
17/05:30am 17.6 17.6 17.3 98 0.2 N 13 19 7 10 - - -
17/05:00am 17.7 18.0 17.1 96 0.4 NNE 11 15 6 8 - - -
17/04:30am 17.8 17.7 17.0 95 0.5 NNE 13 20 7 11 - - -
17/04:00am 17.8 17.1 16.3 91 0.9 N 15 22 8 12 - - -
17/03:30am 18.2 18.0 15.8 86 1.4 N 11 19 6 10 - - -
17/03:00am 18.9 19.0 15.4 80 2.1 NNE 9 13 5 7 - - -
17/02:30am 20.4 20.2 14.7 70 3.4 NE 9 11 5 6 - - -
17/02:00am 22.6 20.2 13.7 57 5.2 E 19 30 10 16 - - -
17/01:30am 23.1 18.2 13.6 55 5.6 ESE 32 43 17 23 - - -
17/01:00am 23.5 20.1 13.7 54 5.8 ESE 24 37 13 20 - - -
17/12:30am 24.1 21.6 13.6 52 6.2 ESE 19 32 10 17 - - -
17/12:00am 24.5 22.1 13.7 51 6.4 ESE 19 35 10 19 - - -
 
Date/Time
WST
Temp
°C
App
Temp
°C
Dew
Point
°C
Rel
Hum
%
Delta-T
°C
Wind Press
QNH
hPa
Press
MSL
hPa
Rain since
9am
mm
Dir  Spd
km/h
Gust
km/h
Spd
kts
Gust
kts
16/11:30pm 25.1 21.7 13.6 49 6.8 E 24 39 13 21 - - -
16/11:00pm 25.8 23.0 13.3 46 7.4 ESE 20 37 11 20 - - -
16/10:30pm 26.3 24.1 13.4 45 7.6 ESE 17 33 9 18 - - -
16/10:00pm 26.3 24.3 13.8 46 7.5 E 17 30 9 16 - - -
16/09:30pm 27.4 26.4 13.4 42 8.3 E 11 22 6 12 - - -

Other Formats:

Comma delimited format used in spreadsheet applications
http://www.bom.gov.au/fwo/IDW60801/IDW60801.94615.axf

JavaScript Object Notation format (JSON) in row-major order
http://www.bom.gov.au/fwo/IDW60801/IDW60801.94615.json